Iola, Kansas
Current Conditions -  °F | °C
As of 9:52 AM on Monday 24 Nov 2014 (Local Time) from KCNU Reporting Station
Clear Clear  
Wind Chill: 36°   Ceiling: Unl
Heat Index: 44°   Visibility: 10mi
Dew Point: 27°   Wind: 18mph
Humidity: 51%   Direction: 290°WNW
Pressure: 29.82"   Gusts: NA
Location:  37.92°N, 95.41°W
Report Text: KCNU 241552Z AUTO 29016KT 10SM CLR 07/M03 A2982 RMK AO2 SLP100 T00671028
Loading
Personal Weather Stations






























Interactive Weather Map New forecast layout! Learn more

10-Day Weather Forecast

Advertisements
Track Severe Weather on mobile